createdAt,value
2019-01-24T00:03:28.710Z,36.50
2019-01-24T00:08:35.009Z,24.63
2019-01-24T00:14:00.012Z,35.63
2019-01-24T00:19:06.929Z,34.57
2019-01-24T00:24:14.800Z,35.50
2019-01-24T00:29:21.463Z,35.20
2019-01-24T00:34:27.639Z,37.97
2019-01-24T00:39:35.185Z,35.23
2019-01-24T00:44:40.821Z,36.83
2019-01-24T00:49:46.497Z,31.83
2019-01-24T00:54:54.117Z,35.07
2019-01-24T01:00:26.185Z,37.07
2019-01-24T01:05:45.265Z,37.10
2019-01-24T01:10:52.695Z,32.77
2019-01-24T01:15:59.273Z,38.27
2019-01-24T01:21:05.880Z,34.10
2019-01-24T01:26:12.473Z,38.47
2019-01-24T01:31:18.700Z,34.63
2019-01-24T01:36:24.880Z,35.13
2019-01-24T01:41:31.289Z,35.17
2019-01-24T01:46:37.462Z,34.17
2019-01-24T01:51:43.136Z,32.27
2019-01-24T01:56:48.855Z,33.27
2019-01-24T02:01:56.225Z,37.80
2019-01-24T02:07:02.464Z,34.83
2019-01-24T02:12:09.576Z,36.57
2019-01-24T02:17:38.239Z,36.73
2019-01-24T02:22:43.933Z,34.63
2019-01-24T02:27:50.499Z,33.73
2019-01-24T02:32:58.280Z,33.10
2019-01-24T02:38:04.949Z,34.03
2019-01-24T02:43:11.552Z,35.37
2019-01-24T02:48:18.118Z,34.33
2019-01-24T02:53:24.678Z,33.70
2019-01-24T02:58:31.369Z,33.77
2019-01-24T03:03:38.186Z,33.37
2019-01-24T03:08:43.850Z,32.87
2019-01-24T03:13:50.519Z,34.70
2019-01-24T03:18:57.123Z,36.67
2019-01-24T03:24:04.285Z,34.30
2019-01-24T03:29:10.493Z,35.70
2019-01-24T03:34:16.914Z,35.57
2019-01-24T03:39:23.157Z,34.17
2019-01-24T03:44:29.723Z,34.27
2019-01-24T03:49:36.218Z,31.67
2019-01-24T03:54:41.895Z,32.50
2019-01-24T03:59:48.496Z,34.67
2019-01-24T04:04:55.153Z,33.40
2019-01-24T04:10:01.817Z,32.47
2019-01-24T04:15:13.734Z,33.13
2019-01-24T04:20:20.264Z,31.40
2019-01-24T04:25:26.799Z,32.53
2019-01-24T04:30:33.362Z,33.33
2019-01-24T04:35:39.928Z,32.73
2019-01-24T04:41:07.407Z,32.23
2019-01-24T04:46:14.320Z,31.80
2019-01-24T04:51:22.394Z,31.23
2019-01-24T04:56:29.047Z,32.27
2019-01-24T05:01:35.624Z,32.73
2019-01-24T05:06:41.278Z,32.93
2019-01-24T05:11:46.927Z,32.17
2019-01-24T05:16:53.609Z,30.70
2019-01-24T05:21:59.840Z,34.77
2019-01-24T05:27:06.020Z,33.27
2019-01-24T05:32:12.115Z,32.60
2019-01-24T05:37:18.422Z,33.13
2019-01-24T05:42:26.320Z,31.07
2019-01-24T05:47:34.807Z,30.93
2019-01-24T05:52:59.900Z,32.13
2019-01-24T05:58:06.955Z,31.07
2019-01-24T06:03:14.140Z,30.40
2019-01-24T06:08:20.589Z,32.03
2019-01-24T06:13:27.524Z,31.23
2019-01-24T06:18:33.583Z,29.70
2019-01-24T06:23:40.954Z,27.60
2019-01-24T06:28:46.665Z,31.17
2019-01-24T06:33:52.443Z,29.70
2019-01-24T06:38:58.609Z,29.93
2019-01-24T06:44:06.156Z,30.00
2019-01-24T06:49:12.587Z,27.40
2019-01-24T06:54:19.121Z,31.37
2019-01-24T06:59:25.623Z,34.17
2019-01-24T07:04:32.257Z,30.97
2019-01-24T07:09:38.860Z,31.33
2019-01-24T07:14:44.564Z,29.80
2019-01-24T07:19:51.371Z,28.03
2019-01-24T07:24:58.010Z,30.57
2019-01-24T07:30:11.021Z,28.33
2019-01-24T07:35:19.515Z,26.87
2019-01-24T07:40:25.837Z,25.77
2019-01-24T07:45:36.148Z,27.20
2019-01-24T07:50:41.799Z,25.33
2019-01-24T07:55:47.538Z,26.73
2019-01-24T08:00:53.223Z,25.87
2019-01-24T08:05:58.889Z,26.87
2019-01-24T08:11:05.578Z,25.53
2019-01-24T08:16:12.350Z,26.57
2019-01-24T08:21:18.929Z,26.07
2019-01-24T08:26:26.526Z,23.07
2019-01-24T08:31:33.137Z,25.30
2019-01-24T08:36:39.628Z,24.93
2019-01-24T08:41:45.370Z,25.30
2019-01-24T08:46:51.961Z,24.33
2019-01-24T08:51:58.825Z,25.33
2019-01-24T08:57:05.721Z,24.97
2019-01-24T09:02:24.340Z,23.97
2019-01-24T09:07:31.176Z,27.10
2019-01-24T09:12:59.037Z,27.37
2019-01-24T09:18:06.602Z,26.80
2019-01-24T09:23:13.114Z,28.90
2019-01-24T09:28:19.696Z,27.43
2019-01-24T09:33:26.446Z,28.83
2019-01-24T09:38:33.216Z,27.27
2019-01-24T09:43:39.716Z,29.17
2019-01-24T09:48:45.373Z,29.43
2019-01-24T09:53:51.892Z,29.93
2019-01-24T09:58:58.538Z,28.37
2019-01-24T10:04:23.578Z,28.73
2019-01-24T10:09:30.149Z,26.67
2019-01-24T10:14:36.611Z,30.10
2019-01-24T10:19:42.313Z,29.17
2019-01-24T10:24:49.363Z,29.97
2019-01-24T10:29:55.900Z,27.40
2019-01-24T10:35:02.386Z,26.23
2019-01-24T10:40:20.923Z,30.47
2019-01-24T10:45:27.095Z,29.87
2019-01-24T10:50:36.536Z,28.03
2019-01-24T10:55:42.211Z,28.47
2019-01-24T11:00:49.771Z,29.33
2019-01-24T11:06:18.899Z,29.53
2019-01-24T11:11:25.430Z,30.17
2019-01-24T11:16:50.608Z,27.73
2019-01-24T11:21:56.875Z,29.20
2019-01-24T11:27:03.244Z,27.77
2019-01-24T11:32:09.414Z,28.87
2019-01-24T11:37:15.739Z,28.63
2019-01-24T11:42:22.373Z,28.03
2019-01-24T11:47:28.949Z,27.03
2019-01-24T11:52:35.427Z,25.60
2019-01-24T11:57:41.075Z,27.67
2019-01-24T12:02:46.727Z,27.97
2019-01-24T12:07:53.183Z,27.80
2019-01-24T12:12:59.725Z,28.67
2019-01-24T12:18:06.451Z,29.53
2019-01-24T12:23:12.995Z,26.33
2019-01-24T12:28:19.574Z,27.93
2019-01-24T12:33:25.672Z,28.37
2019-01-24T12:38:32.931Z,28.20
2019-01-24T12:43:39.681Z,29.03
2019-01-24T12:48:45.309Z,28.97
2019-01-24T12:53:50.894Z,29.23
2019-01-24T12:58:57.024Z,28.00
2019-01-24T13:04:03.224Z,28.60
2019-01-24T13:09:09.599Z,30.17
2019-01-24T13:14:16.106Z,30.03
2019-01-24T13:19:23.898Z,29.73
2019-01-24T13:24:30.269Z,28.20
2019-01-24T13:29:36.859Z,29.20
2019-01-24T13:34:42.474Z,28.73
2019-01-24T13:39:49.319Z,28.20
2019-01-24T13:44:56.023Z,30.33
2019-01-24T13:50:02.528Z,31.30
2019-01-24T13:55:09.025Z,30.50
2019-01-24T14:00:42.106Z,30.57
2019-01-24T14:05:47.782Z,30.60
2019-01-24T14:10:54.426Z,30.77
2019-01-24T14:16:02.693Z,29.20
2019-01-24T14:21:08.765Z,31.93
2019-01-24T14:26:15.152Z,30.73
2019-01-24T14:31:22.214Z,30.40
2019-01-24T14:36:28.358Z,27.40
2019-01-24T14:41:34.914Z,27.90
2019-01-24T14:46:41.075Z,27.03
2019-01-24T14:51:49.066Z,27.27
2019-01-24T14:56:55.789Z,26.33
2019-01-24T15:02:01.963Z,26.60
2019-01-24T15:07:08.538Z,26.93
2019-01-24T15:12:14.941Z,27.37
2019-01-24T15:17:21.968Z,24.63
2019-01-24T15:22:28.541Z,25.20
2019-01-24T15:27:35.344Z,26.83
2019-01-24T15:32:41.283Z,27.60
2019-01-24T15:37:46.839Z,25.70
2019-01-24T15:42:53.522Z,27.00
2019-01-24T15:48:00.182Z,26.80
2019-01-24T15:53:06.395Z,26.33
2019-01-24T15:58:12.900Z,28.37
2019-01-24T16:03:19.054Z,26.70
2019-01-24T16:08:25.134Z,27.50
2019-01-24T16:13:31.541Z,29.67
2019-01-24T16:18:38.190Z,26.90
2019-01-24T16:23:43.790Z,27.23
2019-01-24T16:28:50.365Z,27.87
2019-01-24T16:33:57.009Z,25.13
2019-01-24T16:39:04.293Z,27.13
2019-01-24T16:44:31.750Z,23.23
2019-01-24T16:49:38.370Z,26.87
2019-01-24T16:54:44.037Z,24.00
2019-01-24T16:59:50.957Z,24.47
2019-01-24T17:04:57.813Z,27.13
2019-01-24T17:10:07.713Z,26.87
2019-01-24T17:15:17.405Z,26.20
2019-01-24T17:20:35.905Z,28.47
2019-01-24T17:25:42.535Z,23.97
2019-01-24T17:30:49.095Z,27.93
2019-01-24T17:35:55.664Z,25.53
2019-01-24T17:41:02.138Z,29.47
2019-01-24T17:46:09.005Z,26.93
2019-01-24T17:51:15.758Z,29.87
2019-01-24T17:56:21.885Z,28.83
2019-01-24T18:01:28.098Z,29.40
2019-01-24T18:06:34.555Z,27.53
2019-01-24T18:11:40.552Z,29.10
2019-01-24T18:16:46.194Z,25.07
2019-01-24T18:21:51.871Z,27.20
2019-01-24T18:26:57.511Z,28.90
2019-01-24T18:32:04.332Z,28.23
2019-01-24T18:37:31.546Z,28.57
2019-01-24T18:42:39.881Z,28.77
2019-01-24T18:47:45.560Z,28.10
2019-01-24T18:52:52.164Z,28.80
2019-01-24T18:57:58.659Z,28.73
2019-01-24T19:03:07.401Z,28.33
2019-01-24T19:08:14.427Z,29.23
2019-01-24T19:13:20.772Z,28.27
2019-01-24T19:18:27.267Z,29.70
2019-01-24T19:23:35.242Z,29.33
2019-01-24T19:28:40.863Z,28.47
2019-01-24T19:33:46.584Z,29.43
2019-01-24T19:38:53.432Z,27.53
2019-01-24T19:44:01.103Z,29.70
2019-01-24T19:49:07.807Z,28.40
2019-01-24T19:54:14.439Z,27.87
2019-01-24T19:59:21.100Z,27.53
2019-01-24T20:04:29.132Z,29.13
2019-01-24T20:09:35.240Z,29.63
2019-01-24T20:14:40.932Z,29.23
2019-01-24T20:19:46.551Z,30.33
2019-01-24T20:24:52.251Z,29.10
2019-01-24T20:29:58.413Z,29.70
2019-01-24T20:35:08.248Z,29.13
2019-01-24T20:40:15.766Z,29.33
2019-01-24T20:45:22.588Z,30.23
2019-01-24T20:50:29.491Z,32.17
2019-01-24T20:55:36.083Z,30.40
2019-01-24T21:00:41.726Z,29.77
2019-01-24T21:05:47.343Z,28.03
2019-01-24T21:10:53.670Z,30.53
2019-01-24T21:15:59.904Z,29.97
2019-01-24T21:21:06.737Z,30.20
2019-01-24T21:26:13.535Z,32.20
2019-01-24T21:31:21.110Z,29.37
2019-01-24T21:36:27.746Z,29.67
2019-01-24T21:41:34.249Z,28.73
2019-01-24T21:46:40.799Z,28.73
2019-01-24T21:51:47.293Z,30.00
2019-01-24T21:56:53.780Z,29.73
2019-01-24T22:02:02.350Z,29.97
2019-01-24T22:07:08.885Z,29.80
2019-01-24T22:12:15.109Z,30.37
2019-01-24T22:17:20.834Z,30.23
2019-01-24T22:22:27.113Z,30.43
2019-01-24T22:27:33.414Z,27.67
2019-01-24T22:32:39.557Z,29.70
2019-01-24T22:37:45.115Z,29.57
2019-01-24T22:42:51.515Z,29.30
2019-01-24T22:47:58.031Z,31.97
2019-01-24T22:53:04.448Z,31.43
2019-01-24T22:58:11.420Z,30.10
2019-01-24T23:03:36.703Z,29.40
2019-01-24T23:08:43.390Z,29.43
2019-01-24T23:13:49.918Z,30.43
2019-01-24T23:18:56.478Z,29.93
2019-01-24T23:24:02.587Z,31.57
2019-01-24T23:29:09.283Z,31.20
2019-01-24T23:34:37.012Z,29.37
2019-01-24T23:39:42.669Z,29.60
2019-01-24T23:44:49.568Z,31.60
2019-01-24T23:49:56.119Z,29.83
2019-01-24T23:55:02.575Z,30.93
